Terminal Aerodrome Forecast
Issued by NWS Missoula, MT

Home | Current Version | Previous Version | Text Only | Print | Product List | Glossary On
Versions: 1 2 3 4 5 6 7 8 9 10 11 12 13 14 15
000
FTUS45 KMSO 210302 AAA
TAFGPI
TAF AMD
KGPI 210302Z 2103/2124 25012KT P6SM SCT100
     FM210400 21006KT P6SM SCT060
     FM211700 18012KT P6SM SCT060
     FM212100 22013G20KT P6SM SCT060 BKN150=

USA.gov is the U.S. government's official web portal to all federal, state and local government web resources and services.